Barton City, MI (48705)

5:50 PM EDT on September 03, 2015 (GMT -0400)
MesoWest | | Change Station
CLOSE
Current Station
Personal Weather Station
Location: Curran, MI
Elevation: 901 ft
Nearby Weather Stations

Elev 901 ft 44.73 °N, 83.81 °W | Updated 40 minutes ago

Rain
Rain
71 °F
Feels Like 71 °F
N
2
Wind Variable Wind from East
Gusts 5.0 mph

Today
High -- | Low -- °F
--% Chance of Precip.
Yesterday
High -- | Low -- °F
Precip. -- in
6:58 AM 8:08 PM
Waning Gibbous, 66% visible
Pressure 29.91 in
Visibility 10.0 miles
Clouds Scattered Clouds 800 ft
Mostly Cloudy 10000 ft
Heat Index 71 °F
Dew Point 65 °F
Humidity 81%
Rainfall in
Snow Depth Not available.
UV 1 out of 12
Pollen 10.00 out of 12
Air Quality Not available.
Flu Activity Not available.
METAR KOSC 032133Z AUTO 07007KT 10SM SCT008 BKN100 21/20 A2991 RMK AO2 T02110199
Pressure 29.91 in
Visibility 10.0 miles
Clouds Scattered Clouds 800 ft
Mostly Cloudy 10000 ft
Heat Index 71 °F
Dew Point 65 °F
Humidity 81%
Rainfall in
Snow Depth Not available.
UV 1 out of 12
Pollen 10.00 out of 12
Air Quality Not available.
Flu Activity Not available.
METAR KOSC 032133Z AUTO 07007KT 10SM SCT008 BKN100 21/20 A2991 RMK AO2 T02110199
Nowcast | as of 5:00 PM EDT on September 3, 2015

At 6 PM...cloudy. Scattered showers. Temperature 70. East winds 9 mph. At 8 PM...mostly cloudy. Scattered showers. Temperature 67. East winds 7 mph. At 10 PM...mostly cloudy. Scattered showers. Temperature 67. East winds 5 mph. At 12 am...mostly cloudy. Scattered showers. Temperature 67. East winds 5 mph.

×

10-Day Weather Forecast

×

Almanac

Astronomy

Sep. 03, 2015 Rise Set
Actual Time
Civil Twilight
Nautical Twilight
Astronomical Twilight
Moon
Length of Visible Light
Length of Day
Tomorrow will be .
, % of the Moon is Illuminated

Today's Extremes

State Highs State Lows

Community

WunderPhotos

Upload Photos

1,852,045 photos uploaded!

WunderBlogs® & News

Nearby

Air Quality

  Air Quality AQ Index Pollutant
Not available.

Snow Depth

Station Depth Elevation

Earthquake Activity

City Distance Mag. Time & Date
Minimum magnitude displayed is 2.5.

Coastal Water Temperatures

Place Temperature

Stations

Nearby Weather Stations

Station Location Temp. Windchill Dew Point Humidity Wind Precip. Elev Updated Type